createdAt,value
2022-12-24T00:00:42.765Z,13.44
2022-12-24T00:05:45.698Z,13.32
2022-12-24T00:10:50.310Z,13.24
2022-12-24T00:15:54.900Z,12.91
2022-12-24T00:20:57.798Z,12.83
2022-12-24T00:26:04.202Z,12.89
2022-12-24T00:31:10.670Z,12.74
2022-12-24T00:36:13.547Z,12.50
2022-12-24T00:41:16.465Z,12.34
2022-12-24T00:46:21.020Z,12.20
2022-12-24T00:51:24.846Z,12.04
2022-12-24T00:56:27.810Z,11.95
2022-12-24T01:01:32.388Z,11.95
2022-12-24T01:06:35.302Z,11.73
2022-12-24T01:11:38.175Z,11.69
2022-12-24T01:16:42.749Z,11.65
2022-12-24T01:21:45.591Z,11.51
2022-12-24T01:26:48.442Z,11.29
2022-12-24T01:31:52.984Z,11.69
2022-12-24T01:36:55.892Z,12.08
2022-12-24T01:41:58.779Z,11.96
2022-12-24T01:47:07.160Z,11.66
2022-12-24T01:52:11.695Z,11.55
2022-12-24T01:57:16.777Z,11.45
2022-12-24T02:02:22.346Z,11.28
2022-12-24T02:07:25.809Z,11.15
2022-12-24T02:12:31.003Z,11.06
2022-12-24T02:17:40.616Z,11.00
2022-12-24T02:22:53.715Z,10.95
2022-12-24T02:27:58.391Z,10.96
2022-12-24T02:33:16.387Z,10.90
2022-12-24T02:38:23.124Z,10.88
2022-12-24T02:43:28.285Z,10.88
2022-12-24T02:48:33.199Z,10.88
2022-12-24T02:53:36.533Z,10.93
2022-12-24T02:58:45.300Z,10.81
2022-12-24T03:04:00.535Z,10.70
2022-12-24T03:09:06.620Z,10.47
2022-12-24T03:14:09.590Z,10.40
2022-12-24T03:19:14.198Z,10.33
2022-12-24T03:24:17.052Z,10.33
2022-12-24T03:29:20.192Z,10.28
2022-12-24T03:34:24.750Z,10.16
2022-12-24T03:39:27.598Z,10.09
2022-12-24T03:44:30.461Z,9.97
2022-12-24T03:49:35.091Z,9.98
2022-12-24T03:54:37.949Z,9.86
2022-12-24T03:59:40.792Z,9.78
2022-12-24T04:04:45.333Z,9.83
2022-12-24T04:09:48.205Z,9.67
2022-12-24T04:14:51.043Z,9.43
2022-12-24T04:19:55.584Z,9.51
2022-12-24T04:24:58.405Z,9.35
2022-12-24T04:30:01.279Z,9.28
2022-12-24T04:35:06.043Z,9.14
2022-12-24T04:40:09.539Z,9.10
2022-12-24T04:45:12.431Z,9.20
2022-12-24T04:50:16.996Z,9.14
2022-12-24T04:55:19.897Z,9.19
2022-12-24T05:00:22.849Z,9.09
2022-12-24T05:05:27.359Z,8.99
2022-12-24T05:10:30.194Z,8.99
2022-12-24T05:15:33.081Z,9.09
2022-12-24T05:20:37.620Z,9.04
2022-12-24T05:25:41.301Z,9.14
2022-12-24T05:30:44.169Z,9.06
2022-12-24T05:35:48.707Z,9.15
2022-12-24T05:40:51.563Z,9.08
2022-12-24T05:45:58.816Z,9.07
2022-12-24T05:51:04.786Z,9.13
2022-12-24T05:56:08.503Z,9.46
2022-12-24T06:01:11.793Z,9.23
2022-12-24T06:06:17.468Z,9.24
2022-12-24T06:11:21.223Z,9.17
2022-12-24T06:16:24.577Z,9.27
2022-12-24T06:21:29.288Z,9.18
2022-12-24T06:26:32.193Z,9.24
2022-12-24T06:31:35.057Z,9.21
2022-12-24T06:36:39.657Z,9.18
2022-12-24T06:41:42.509Z,9.40
2022-12-24T06:46:45.394Z,9.38
2022-12-24T06:51:49.911Z,9.42
2022-12-24T06:56:52.762Z,9.47
2022-12-24T07:01:55.664Z,9.55
2022-12-24T07:07:03.095Z,9.56
2022-12-24T07:12:06.207Z,9.58
2022-12-24T07:17:09.300Z,9.64
2022-12-24T07:22:15.904Z,9.69
2022-12-24T07:27:19.011Z,9.55
2022-12-24T07:32:21.939Z,9.54
2022-12-24T07:37:26.472Z,9.58
2022-12-24T07:42:29.360Z,9.63
2022-12-24T07:47:32.253Z,9.64
2022-12-24T07:52:36.761Z,9.55
2022-12-24T07:57:39.628Z,9.47
2022-12-24T08:02:42.692Z,9.46
2022-12-24T08:07:47.385Z,9.36
2022-12-24T08:12:50.294Z,8.96
2022-12-24T08:17:53.169Z,8.98
2022-12-24T08:22:58.644Z,9.09
2022-12-24T08:28:01.520Z,9.05
2022-12-24T08:33:04.439Z,8.92
2022-12-24T08:38:08.985Z,8.88
2022-12-24T08:43:11.837Z,8.82
2022-12-24T08:48:14.700Z,8.79
2022-12-24T08:53:19.933Z,8.65
2022-12-24T08:58:22.778Z,8.64
2022-12-24T09:03:28.107Z,8.58
2022-12-24T09:08:32.946Z,8.33
2022-12-24T09:13:35.934Z,8.42
2022-12-24T09:18:39.219Z,8.37
2022-12-24T09:23:44.461Z,8.37
2022-12-24T09:28:47.408Z,8.35
2022-12-24T09:33:50.768Z,8.25
2022-12-24T09:38:55.321Z,8.21
2022-12-24T09:44:01.455Z,8.27
2022-12-24T09:49:06.242Z,8.07
2022-12-24T09:54:15.215Z,7.89
2022-12-24T09:59:18.939Z,7.88
2022-12-24T10:04:23.351Z,7.80
2022-12-24T10:09:34.293Z,7.76
2022-12-24T10:14:46.935Z,7.83
2022-12-24T10:19:53.086Z,7.80
2022-12-24T10:25:01.804Z,7.73
2022-12-24T10:30:10.351Z,7.69
2022-12-24T10:35:22.188Z,7.71
2022-12-24T10:40:33.042Z,7.68
2022-12-24T10:45:38.279Z,7.64
2022-12-24T10:50:43.842Z,7.57
2022-12-24T10:55:49.598Z,7.57
2022-12-24T11:00:53.455Z,7.46
2022-12-24T11:06:04.023Z,7.46
2022-12-24T11:11:12.111Z,7.36
2022-12-24T11:16:19.467Z,7.31
2022-12-24T11:21:24.199Z,7.48
2022-12-24T11:26:29.751Z,7.41
2022-12-24T11:31:32.720Z,7.36
2022-12-24T11:36:35.789Z,7.40
2022-12-24T11:41:40.497Z,7.43
2022-12-24T11:46:44.203Z,7.26
2022-12-24T11:52:11.791Z,7.20
2022-12-24T11:57:17.986Z,7.16
2022-12-24T12:02:24.107Z,7.27
2022-12-24T12:07:28.353Z,7.18
2022-12-24T12:12:34.861Z,7.14
2022-12-24T12:17:40.306Z,7.14
2022-12-24T12:22:46.573Z,7.06
2022-12-24T12:27:53.142Z,6.99
2022-12-24T12:32:59.943Z,7.03
2022-12-24T12:38:04.326Z,7.14
2022-12-24T12:43:14.573Z,6.99
2022-12-24T12:48:48.169Z,6.98
2022-12-24T12:54:02.685Z,6.90
2022-12-24T12:59:11.186Z,7.07
2022-12-24T13:04:31.949Z,7.09
2022-12-24T13:09:49.222Z,7.05
2022-12-24T13:15:00.133Z,7.16
2022-12-24T13:20:12.855Z,7.15
2022-12-24T13:25:23.201Z,7.07
2022-12-24T13:30:38.552Z,7.18
2022-12-24T13:35:55.813Z,7.21
2022-12-24T13:41:19.719Z,7.08
2022-12-24T13:46:36.974Z,6.92
2022-12-24T13:51:41.505Z,7.08
2022-12-24T13:56:44.361Z,7.04
2022-12-24T14:01:47.600Z,7.08
2022-12-24T14:06:55.018Z,7.33
2022-12-24T14:12:32.091Z,7.18
2022-12-24T14:17:34.995Z,7.09
2022-12-24T14:22:41.076Z,6.97
2022-12-24T14:27:44.999Z,6.90
2022-12-24T14:32:50.347Z,6.94
2022-12-24T14:37:58.629Z,7.01
2022-12-24T14:43:06.711Z,7.05
2022-12-24T14:48:14.077Z,7.16
2022-12-24T14:53:27.001Z,7.15
2022-12-24T14:58:31.377Z,7.06
2022-12-24T15:03:34.387Z,7.19
2022-12-24T15:08:41.067Z,6.99
2022-12-24T15:13:44.799Z,7.15
2022-12-24T15:18:49.720Z,7.08
2022-12-24T15:23:54.327Z,7.19
2022-12-24T15:29:02.702Z,7.42
2022-12-24T15:34:06.380Z,7.72
2022-12-24T15:39:16.169Z,7.87
2022-12-24T15:44:20.267Z,7.99
2022-12-24T15:49:24.228Z,8.02
2022-12-24T15:54:28.747Z,7.94
2022-12-24T15:59:32.826Z,8.23
2022-12-24T16:04:35.678Z,8.30
2022-12-24T16:09:44.250Z,8.44
2022-12-24T16:14:48.215Z,8.44
2022-12-24T16:19:52.273Z,8.49
2022-12-24T16:24:56.778Z,8.56
2022-12-24T16:29:59.644Z,8.82
2022-12-24T16:35:03.134Z,9.08
2022-12-24T16:40:16.628Z,9.36
2022-12-24T16:45:21.244Z,9.55
2022-12-24T16:50:24.105Z,9.90
2022-12-24T16:55:28.615Z,10.18
2022-12-24T17:00:31.499Z,10.32
2022-12-24T17:05:34.840Z,10.45
2022-12-24T17:10:39.685Z,10.77
2022-12-24T17:15:42.661Z,11.05
2022-12-24T17:20:57.225Z,11.33
2022-12-24T17:26:03.209Z,11.71
2022-12-24T17:31:08.962Z,12.08
2022-12-24T17:36:11.962Z,12.46
2022-12-24T17:41:19.258Z,12.70
2022-12-24T17:46:22.889Z,12.96
2022-12-24T17:51:25.895Z,13.06
2022-12-24T17:56:30.465Z,13.03
2022-12-24T18:01:33.496Z,13.48
2022-12-24T18:06:36.515Z,14.02
2022-12-24T18:11:41.030Z,14.22
2022-12-24T18:16:44.600Z,14.31
2022-12-24T18:21:47.581Z,14.45
2022-12-24T18:26:52.141Z,14.76
2022-12-24T18:31:55.099Z,14.89
2022-12-24T18:36:58.008Z,14.83
2022-12-24T18:42:02.510Z,14.71
2022-12-24T18:47:05.485Z,15.13
2022-12-24T18:52:09.836Z,15.38
2022-12-24T18:57:15.298Z,15.39
2022-12-24T19:02:36.562Z,15.27
2022-12-24T19:13:34.107Z,15.28
2022-12-24T19:18:37.001Z,15.39
2022-12-24T19:23:40.606Z,15.41
2022-12-24T19:28:45.493Z,15.41
2022-12-24T19:33:49.209Z,15.46
2022-12-24T19:38:53.398Z,15.68
2022-12-24T19:43:59.131Z,15.75
2022-12-24T19:49:02.949Z,15.52
2022-12-24T19:54:06.185Z,15.74
2022-12-24T19:59:11.072Z,15.95
2022-12-24T20:04:13.926Z,15.93
2022-12-24T20:09:16.797Z,15.99
2022-12-24T20:14:21.294Z,15.93
2022-12-24T20:19:24.167Z,15.85
2022-12-24T20:24:28.327Z,15.97
2022-12-24T20:29:32.809Z,15.94
2022-12-24T20:34:35.652Z,16.02
2022-12-24T20:39:38.550Z,16.07
2022-12-24T20:44:43.103Z,16.13
2022-12-24T20:49:45.980Z,16.03
2022-12-24T20:54:48.835Z,15.83
2022-12-24T20:59:53.418Z,15.88
2022-12-24T21:05:01.658Z,16.00
2022-12-24T21:10:05.701Z,15.99
2022-12-24T21:15:10.656Z,15.96
2022-12-24T21:20:13.928Z,16.06
2022-12-24T21:25:16.811Z,16.05
2022-12-24T21:30:21.375Z,16.05
2022-12-24T21:35:24.271Z,16.20
2022-12-24T21:40:27.132Z,16.25
2022-12-24T21:45:31.755Z,16.26
2022-12-24T21:50:34.637Z,16.35
2022-12-24T21:55:37.504Z,16.34
2022-12-24T22:00:42.466Z,16.27
2022-12-24T22:05:45.341Z,16.32
2022-12-24T22:10:48.250Z,16.29
2022-12-24T22:15:53.723Z,16.41
2022-12-24T22:20:56.667Z,16.42
2022-12-24T22:26:00.251Z,16.59
2022-12-24T22:31:04.953Z,16.73
2022-12-24T22:36:08.188Z,16.79
2022-12-24T22:41:12.456Z,16.78
2022-12-24T22:46:17.176Z,16.85
2022-12-24T22:51:21.360Z,16.83
2022-12-24T22:56:24.262Z,16.79
2022-12-24T23:01:35.819Z,16.55
2022-12-24T23:06:39.060Z,16.43
2022-12-24T23:11:42.043Z,16.26
2022-12-24T23:16:46.540Z,16.16
2022-12-24T23:21:49.411Z,16.19
2022-12-24T23:26:52.263Z,16.24
2022-12-24T23:31:56.824Z,16.14
2022-12-24T23:36:59.708Z,16.03
2022-12-24T23:42:02.634Z,15.57
2022-12-24T23:47:07.204Z,15.51
2022-12-24T23:52:10.134Z,15.27
2022-12-24T23:57:13.035Z,15.10
